»·PEaware :: AAL1417 KSBA-KSNA

AAL1417 :: KSBA-KSNA

FLIGHT INFORMATION

Flight Status: Arrived
Operator:
American Airlines
More flights by this operator :: More flights under this callsign
Pilot: Vlad D. (11271)
Aircraft: MCDONNELL-DOUGLAS MD-80
(MD80)
More flights by this aircraft type
Origin: KSBA Santa Barbara Mun
United States
Destination: KSNA John Wayne-Orange Co
United States
More flights between these airports :: More routes between these airports
Route: +KWANG VTU V208 SXC SLI
File this flight plan on PilotEdge
Remarks: MD-80 familiarization flight; KWANG5 departure and RWY 20R ILS w vectors if possible.
Altitude:
(Current/Filed)
11,000ft
Speed:
(Current/Filed)
300kts
Departed: 28-May-16 12:42 PM
Arrived: 28-May-16 01:19 PM
Distance/Time
Traveled:
108nm/0:36
Distance/Time
To Go:
Arrived

Flight Plot

Page will automatically refresh every two minutes.


Map Options




Map Legend


Flown Route
Filed Route
Departure Airport
Arrival Airport
Navaid (VOR, NDB)
Fix

Horizontal Profiles

Position Reports

Time Latitude Longitude Heading Altitude Ground
Speed
28-May-16 12:03 34.423950 -119.837105 76 19ft 0kts
28-May-16 12:04 34.423950 -119.837105 76 19ft 0kts
28-May-16 12:05 34.423950 -119.837105 76 19ft 0kts
28-May-16 12:06 34.423950 -119.837105 76 19ft 0kts
28-May-16 12:07 34.423950 -119.837105 76 19ft 0kts
28-May-16 12:08 34.423950 -119.837105 76 19ft 0kts
28-May-16 12:09 34.423950 -119.837105 76 19ft 0kts
28-May-16 12:10 34.423950 -119.837105 76 19ft 0kts
28-May-16 12:11 34.423950 -119.837105 76 19ft 0kts
28-May-16 12:12 34.423950 -119.837105 76 19ft 0kts
28-May-16 12:13 34.423950 -119.837105 76 19ft 0kts
28-May-16 12:14 34.423950 -119.837105 76 19ft 0kts
28-May-16 12:15 34.423950 -119.837105 76 19ft 0kts
28-May-16 12:16 34.423950 -119.837105 76 19ft 0kts
28-May-16 12:17 34.423950 -119.837105 76 19ft 0kts
28-May-16 12:18 34.423950 -119.837105 76 19ft 0kts
28-May-16 12:19 34.423950 -119.837105 76 19ft 0kts
28-May-16 12:20 34.423950 -119.837105 76 19ft 0kts
28-May-16 12:21 34.423950 -119.837105 76 19ft 0kts
28-May-16 12:22 34.423950 -119.837105 76 19ft 0kts
28-May-16 12:23 34.423950 -119.837105 76 19ft 0kts
28-May-16 12:24 34.423950 -119.837105 76 19ft 0kts
28-May-16 12:25 34.423950 -119.837105 76 19ft 0kts
28-May-16 12:26 34.423950 -119.837105 76 19ft 0kts
28-May-16 12:27 34.423949 -119.837113 76 19ft 0kts
28-May-16 12:28 34.423835 -119.837547 35 19ft 0kts
28-May-16 12:29 34.423838 -119.837545 36 19ft 0kts
28-May-16 12:30 34.423838 -119.837545 36 19ft 0kts
28-May-16 12:31 34.423838 -119.837545 36 19ft 0kts
28-May-16 12:32 34.423838 -119.837545 36 19ft 0kts
28-May-16 12:33 34.426203 -119.838134 340 19ft 20kts
28-May-16 12:34 34.426588 -119.842117 267 19ft 22kts
28-May-16 12:35 34.426441 -119.849970 268 19ft 15kts
28-May-16 12:36 34.426385 -119.852764 268 19ft 9kts
28-May-16 12:37 34.426555 -119.853877 307 19ft 0kts
28-May-16 12:38 34.426555 -119.853877 307 19ft 0kts
28-May-16 12:39 34.427502 -119.853321 85 19ft 11kts
28-May-16 12:40 34.424685 -119.813560 127 1157ft 165kts
28-May-16 12:41 34.384764 -119.759748 132 2933ft 246kts
28-May-16 12:42 34.338992 -119.698662 132 2998ft 244kts
28-May-16 12:43 34.294158 -119.637943 132 2999ft 244kts
28-May-16 12:44 34.249538 -119.575617 131 2999ft 246kts
28-May-16 12:45 34.205342 -119.511752 131 2999ft 250kts
28-May-16 12:46 34.160859 -119.447085 131 4300ft 252kts
28-May-16 12:47 34.112147 -119.383362 133 5819ft 266kts
28-May-16 12:48 34.063154 -119.318266 133 7285ft 270kts
28-May-16 12:49 34.012324 -119.250890 133 8781ft 275kts
28-May-16 12:50 33.960357 -119.182355 132 10276ft 281kts
28-May-16 12:51 33.906997 -119.112117 132 10996ft 286kts
28-May-16 12:52 33.853489 -119.041839 132 11000ft 285kts
28-May-16 12:53 33.799891 -118.971577 132 11000ft 286kts
28-May-16 12:54 33.745908 -118.900997 132 11000ft 286kts
28-May-16 12:55 33.691769 -118.830348 132 11005ft 288kts
28-May-16 12:56 33.641537 -118.756243 108 10772ft 290kts
28-May-16 12:57 33.646506 -118.663684 81 9283ft 274kts
28-May-16 12:58 33.657232 -118.575064 81 7767ft 264kts
28-May-16 12:59 33.667455 -118.487668 81 6760ft 271kts
28-May-16 13:00 33.677303 -118.398027 81 5756ft 269kts
28-May-16 13:01 33.685881 -118.309937 81 5017ft 268kts
28-May-16 13:02 33.696297 -118.219796 81 5001ft 276kts
28-May-16 13:03 33.708761 -118.131411 81 4995ft 272kts
28-May-16 13:04 33.721147 -118.047417 81 4988ft 261kts
28-May-16 13:05 33.759448 -117.976761 41 4997ft 267kts
28-May-16 13:06 33.802746 -117.932308 41 4993ft 267kts
28-May-16 13:07 33.866767 -117.866479 41 4989ft 267kts
28-May-16 13:08 33.912541 -117.802560 80 5063ft 220kts
28-May-16 13:09 33.921460 -117.747239 81 4982ft 197kts
28-May-16 13:10 33.900259 -117.697526 176 4484ft 190kts
28-May-16 13:11 33.858644 -117.730376 221 3640ft 186kts
28-May-16 13:12 33.827524 -117.770868 226 2985ft 149kts
28-May-16 13:13 33.792444 -117.794736 208 2464ft 138kts
28-May-16 13:14 33.758696 -117.816180 208 1760ft 136kts
28-May-16 13:15 33.725490 -117.837261 208 1044ft 135kts
28-May-16 13:16 33.692304 -117.858292 208 320ft 133kts
28-May-16 13:17 33.671941 -117.871249 207 62ft 23kts
28-May-16 13:18 33.669313 -117.871780 134 62ft 0kts
28-May-16 13:19 33.669131 -117.871452 110 62ft 6kts
28-May-16 13:20 33.671288 -117.868727 35 62ft 12kts
28-May-16 13:21 33.673414 -117.866949 32 62ft 8kts
28-May-16 13:22 33.676096 -117.865224 27 62ft 10kts
28-May-16 13:23 33.678874 -117.863456 34 62ft 6kts
28-May-16 13:24 33.679035 -117.862708 113 62ft 1kts
28-May-16 13:25 33.679022 -117.862672 113 62ft 0kts

Navigation Log

Ident Type
Flight plan parsing failed, navigation log unavailable